x

Portland 12 Nm Southeast Of Portland,me (44007) Wave Buoy

3:50am - Thu 19th Apr 2018 All times are EDT. -4 hours from GMT.

  • Sig Wave height 3.0ft
  • Swell Direction
  • Peak Period 10s
  • Average Period 5s
  • Wind
    13mph, 16mph gusts
  • Sea Temp 41°f
  • Air Temp 41°f
  • Sea Pressure 1004.6mb
  • Portland 12 Nm Southeast Of Portland,me
  • Portland 12 Nm Southeast Of Portland,me

More Historic Weather Station data

Upgrade to MSW Pro to gain access to the past 30 days of data for over 8000 Wavebouys and Weather Stations around the globe.

Join

Comparision Forecast

View Surf forecast
   
Thu 04/19 3:50am 3ft 10s 5s 13 16 mph 1004.6mb 41f 41f
1:50am 3ft 11s 5s 16 20 mph 1004.8mb 41f 42f
12:50am 3ft 11s 5s 16 18 mph 1004.7mb 41f 43f
Wed 04/18 11:50pm 3.5ft 9s 6s 11 13 mph 1004.8mb 41f 43f
10:50pm 3.5ft 11s 6s 13 16 mph 1005mb 41f 44f
9:50pm 3.5ft 11s 6s 16 18 mph 1005mb 41f 44f
8:50pm 3.5ft 9s 6s 13 16 mph 1004.8mb 41f 44f
7:50pm 3.5ft 8s 6s 16 18 mph 1003.7mb 41f 46f
6:50pm 3.5ft 10s 6s 18 20 mph 1003.2mb 41f 46f
5:50pm 4ft 9s 5s 20 27 mph 1002.6mb 42f 47f
4:50pm 4.5ft 10s 6s 22 25 mph 1002.5mb 42f 46f
3:50pm 3.5ft 10s 5s 18 25 mph 1001.5mb 42f 47f
1:50pm 3.5ft 10s 6s 13 18 mph 1001mb 41f 45f
12:50pm 4ft 10s 6s 16 20 mph 1000.7mb 41f 44f
11:50am 4.5ft 10s 7s 11 11 mph 1000.8mb 41f 42f
10:50am 4.5ft 10s 6s 11 16 mph 1001.2mb 41f 41f
9:50am 4.5ft 10s 6s 13 16 mph 1001.2mb 40f 40f
8:50am 5ft 9s 6s 16 18 mph 1001.1mb 40f 38f
7:50am 5ft 9s 6s 18 22 mph 1000.8mb 40f 37f
6:50am 4.5ft 9s 6s 18 22 mph 1000.6mb 40f 37f
5:50am 4.5ft 10s 6s 18 20 mph 999.9mb 40f 37f
4:50am 5ft 10s 7s 18 22 mph 999.7mb 40f 37f
3:50am 4.5ft 10s 6s 18 25 mph 999.6mb 40f 38f
2:50am 5ft 10s 6s 18 22 mph 999.4mb 40f 38f
1:50am 5ft 10s 6s 16 20 mph 999.3mb 40f 39f
12:50am 5.5ft 9s 7s 16 20 mph 999.3mb 40f 39f
Tue 04/17 11:50pm 6ft 10s 7s 18 20 mph 999.1mb 40f 39f
10:50pm 7ft 10s 7s 18 22 mph 999mb 41f 40f
9:50pm 7ft 10s 7s 16 20 mph 998.9mb 41f 41f
8:50pm 6.5ft 10s 7s 18 22 mph 998.7mb 41f 42f
7:50pm 7ft 10s 7s 18 22 mph 998mb 41f 42f
6:50pm 6ft 10s 7s 18 22 mph 997.4mb 41f 44f
5:50pm 6.5ft 10s 7s 16 20 mph 996.9mb 41f 44f
4:50pm 6ft 10s 7s 16 20 mph 996.5mb 41f 44f
3:50pm 6.5ft 10s 6s 20 25 mph 995.9mb 41f 42f
2:50pm 6.5ft 10s 6s 20 22 mph 995.7mb 40f 42f
1:50pm 7ft 10s 6s 16 20 mph 996mb 40f 43f
12:50pm 6.5ft 10s 6s 18 20 mph 995.5mb 40f 42f
11:50am 7ft 10s 7s 13 18 mph 996mb 40f 42f
10:50am 8.5ft 10s 7s 18 20 mph 995.4mb 40f 42f
9:50am 9ft 10s 7s 20 25 mph 995.6mb 40f 42f
8:50am 11ft 10s 8s 16 20 mph 996mb 40f 42f
7:50am 11ft 10s 8s 16 18 mph 996.5mb 40f 42f
6:50am 11.5ft 10s 8s 7 9 mph 996.7mb 40f 41f
5:50am 12ft 10s 8s 11 13 mph 996.7mb 40f 42f
4:50am 12ft 11s 8s 7 9 mph 997.6mb 40f 41f
3:50am 13ft 11s 8s 9 11 mph 997.9mb 40f 42f
2:50am 15.5ft 11s 8s 7 9 mph 998.3mb 40f 42f
1:50am 13ft 11s 8s 9 13 mph 999.3mb 40f 43f
12:50am 14.5ft 11s 8s 11 13 mph 999.9mb 40f 43f
Mon 04/16 11:50pm 14.5ft 10s 8s 18 25 mph 1000.2mb 40f 44f
10:50pm 15.5ft 11s 8s 27 34 mph 1000.9mb 40f 45f
9:50pm 18.5ft 11s 8s 29 38 mph 1002.2mb 40f 44f
8:50pm 16ft 10s 7s 34 45 mph 1002.1mb 40f 43f
7:50pm 17.5ft 10s 8s 34 40 mph 1004.4mb 40f 42f
6:50pm 15.5ft 10s 8s 31 40 mph 1007.1mb 40f 42f
5:50pm 15.5ft 10s 7s 25 36 mph 1010.7mb 40f 41f
4:50pm 15.5ft 11s 7s 34 43 mph 1010.4mb 40f 40f
3:50pm 15.5ft 10s 8s 29 36 mph 1013.2mb 40f 39f
2:50pm 16ft 9s 7s 29 36 mph 1015.6mb 40f 38f
1:50pm 13ft 10s  -  31 38 mph 1017.7mb 40f 37f
12:50pm 14ft 9s 7s 29 38 mph 1020.1mb 40f 37f
11:50am 12ft 8s 6s 29 38 mph 1021.2mb 40f 36f
10:50am 12.5ft 8s 7s 31 38 mph 1022.5mb 40f 36f
9:50am 10.5ft 9s 6s 29 36 mph 1024.4mb 40f 36f
8:50am 10ft 8s 6s 29 34 mph 1025.8mb 40f 36f
7:50am 9.5ft 8s 6s 27 34 mph 1027mb 40f 36f
6:50am 8.5ft 8s 6s 27 31 mph 1027.7mb 40f 36f
5:50am 7.5ft 8s 5s 27 31 mph 1028.3mb 40f 37f
4:50am 7ft 7s 5s 25 31 mph 1029mb 40f 37f
3:50am 7ft 7s 5s 27 31 mph 1029.7mb 40f 37f
2:50am 7.5ft 7s 5s 27 31 mph 1030mb 40f 36f
1:50am 6ft 6s 5s 25 29 mph 1031.5mb 40f 37f
12:50am 5.5ft 6s 5s 25 31 mph 1031.8mb 40f 37f
Sun 04/15 11:50pm 4.5ft 6s 5s 25 31 mph 1031.3mb 40f 36f
10:50pm 4ft 6s 4s 22 27 mph 1032.8mb 40f 35f
9:50pm 4.5ft 6s 5s 16 20 mph 1033.7mb 40f 33f
8:50pm 4ft 6s 5s 16 18 mph 1034.4mb 40f 33f
7:50pm 4.5ft 6s 5s 16 20 mph 1033.9mb 40f 32f
6:50pm 4ft 7s 4s 18 22 mph 1033.9mb 40f 31f
5:50pm 4ft 7s 5s 18 22 mph 1033.7mb 40f 31f
4:50pm 4.5ft 7s 5s 16 20 mph 1034.3mb 40f 31f
3:50pm 4.5ft 7s 5s 16 20 mph 1034.4mb 40f 31f
2:50pm 4.5ft 6s 5s 11 16 mph 1034.7mb 40f 31f
1:50pm 4.5ft 6s 5s 11 16 mph 1035mb 40f 30f
12:50pm 4.5ft 6s 5s 11 16 mph 1035.2mb 40f 28f
11:50am 4.5ft 6s 5s 16 20 mph 1035.3mb 40f 28f
10:50am 4.5ft 6s 5s 18 20 mph 1035.2mb 40f 28f
9:50am 4ft 6s 5s 18 22 mph 1034.8mb 40f 29f